BCS42D LRTR-LHBP
Flight info
| Callsign | BCS42D |
|---|---|
| Flight time | N/A |
| Altitude | 24000 |
| Route | MOPUG DCT KEZAL |
| Aircraft | A306/H-SDE3FGHIRWY/LB1 |
Departure
| Time | 2026-05-06 08:28 |
|---|---|
| Airport | Timișoara Traian Vuia International Airport (LRTR) |
Arrival
| Time | N/A |
|---|---|
| Airport | Budapest Liszt Ferenc International Airport (LHBP) |
| Time | Latitude | Longitude | Altitude | Speed | Heading |
|---|---|---|---|---|---|
| 2026-05-06 07:56 | 45.81017 | 21.32372 | 348 ft | 0 kts | 313° |
| 2026-05-06 08:22 | 45.81028 | 21.32354 | 358 ft | 6 kts | 311° |
| 2026-05-06 08:23 | 45.81055 | 21.32367 | 355 ft | 7 kts | 42° |
| 2026-05-06 08:23 | 45.81083 | 21.32467 | 355 ft | 13 kts | 86° |
| 2026-05-06 08:23 | 45.81068 | 21.32602 | 353 ft | 15 kts | 107° |
| 2026-05-06 08:23 | 45.81030 | 21.32755 | 353 ft | 17 kts | 110° |
| 2026-05-06 08:24 | 45.80988 | 21.32923 | 348 ft | 19 kts | 110° |
| 2026-05-06 08:24 | 45.80938 | 21.33130 | 352 ft | 25 kts | 106° |
| 2026-05-06 08:24 | 45.80869 | 21.33380 | 355 ft | 28 kts | 108° |
| 2026-05-06 08:24 | 45.80934 | 21.33566 | 355 ft | 20 kts | 16° |
| 2026-05-06 08:25 | 45.81000 | 21.33719 | 351 ft | 23 kts | 107° |
| 2026-05-06 08:25 | 45.80938 | 21.33955 | 353 ft | 28 kts | 109° |
| 2026-05-06 08:25 | 45.80865 | 21.34247 | 353 ft | 34 kts | 110° |
| 2026-05-06 08:25 | 45.80776 | 21.34581 | 349 ft | 37 kts | 111° |
| 2026-05-06 08:26 | 45.80693 | 21.34942 | 359 ft | 38 kts | 109° |
| 2026-05-06 08:26 | 45.80602 | 21.35295 | 357 ft | 37 kts | 110° |
| 2026-05-06 08:26 | 45.80519 | 21.35644 | 356 ft | 35 kts | 97° |
| 2026-05-06 08:26 | 45.80491 | 21.35875 | 354 ft | 5 kts | 155° |
| 2026-05-06 08:27 | 45.80482 | 21.35862 | 351 ft | 1 kts | 244° |
| 2026-05-06 08:27 | 45.80479 | 21.35838 | 353 ft | 5 kts | 261° |
| 2026-05-06 08:27 | 45.80483 | 21.35777 | 351 ft | 4 kts | 280° |
| 2026-05-06 08:27 | 45.80536 | 21.35564 | 357 ft | 57 kts | 289° |
| 2026-05-06 08:28 | 45.80759 | 21.34673 | 351 ft | 131 kts | 290° |
| 2026-05-06 08:28 | 45.81145 | 21.33127 | 378 ft | 198 kts | 289° |
| 2026-05-06 08:28 | 45.81680 | 21.31114 | 1017 ft | 228 kts | 290° |
| 2026-05-06 08:28 | 45.82290 | 21.28992 | 2293 ft | 228 kts | 292° |
| 2026-05-06 08:29 | 45.82925 | 21.26903 | 3318 ft | 231 kts | 290° |
| 2026-05-06 08:29 | 45.83552 | 21.24681 | 3889 ft | 250 kts | 288° |
| 2026-05-06 08:29 | 45.84339 | 21.22383 | 4531 ft | 264 kts | 306° |
| 2026-05-06 08:29 | 45.85523 | 21.20345 | 5430 ft | 266 kts | 308° |
| 2026-05-06 08:30 | 45.86750 | 21.18344 | 6433 ft | 268 kts | 308° |
| 2026-05-06 08:30 | 45.88008 | 21.16338 | 7289 ft | 272 kts | 308° |
| 2026-05-06 08:30 | 45.89266 | 21.14336 | 8171 ft | 275 kts | 308° |
| 2026-05-06 08:30 | 45.90557 | 21.12278 | 9049 ft | 279 kts | 308° |
| 2026-05-06 08:31 | 45.91865 | 21.10188 | 9909 ft | 283 kts | 308° |
| 2026-05-06 08:31 | 45.93189 | 21.08069 | 10699 ft | 286 kts | 308° |
| 2026-05-06 08:31 | 45.94530 | 21.05922 | 11522 ft | 288 kts | 308° |
| 2026-05-06 08:31 | 45.95867 | 21.03783 | 12352 ft | 289 kts | 309° |
| 2026-05-06 08:32 | 45.97218 | 21.01624 | 13167 ft | 291 kts | 309° |
| 2026-05-06 08:32 | 45.98570 | 20.99457 | 13940 ft | 293 kts | 309° |
| 2026-05-06 08:32 | 45.99952 | 20.97243 | 14590 ft | 296 kts | 309° |
| 2026-05-06 08:32 | 46.01316 | 20.95057 | 15213 ft | 300 kts | 309° |
| 2026-05-06 08:33 | 46.02712 | 20.92815 | 15838 ft | 303 kts | 309° |